sensor_id;sensor_type;location;lat;lon;timestamp;P1;durP1;ratioP1;P2;durP2;ratioP2
78686;SDS011;68002;52.310;6.990;2023-06-05T00:00:52;6.05;;;3.20;;
78686;SDS011;68002;52.310;6.990;2023-06-05T00:03:17;5.43;;;2.10;;
78686;SDS011;68002;52.310;6.990;2023-06-05T00:05:42;5.80;;;2.23;;
78686;SDS011;68002;52.310;6.990;2023-06-05T00:08:07;5.93;;;2.87;;
78686;SDS011;68002;52.310;6.990;2023-06-05T00:10:32;3.77;;;1.90;;
78686;SDS011;68002;52.310;6.990;2023-06-05T00:12:58;4.97;;;2.50;;
78686;SDS011;68002;52.310;6.990;2023-06-05T00:15:23;4.37;;;2.00;;
78686;SDS011;68002;52.310;6.990;2023-06-05T00:17:48;5.80;;;3.10;;
78686;SDS011;68002;52.310;6.990;2023-06-05T00:20:13;4.87;;;2.23;;
78686;SDS011;68002;52.310;6.990;2023-06-05T00:22:38;4.90;;;2.60;;
78686;SDS011;68002;52.310;6.990;2023-06-05T00:25:04;3.33;;;1.70;;
78686;SDS011;68002;52.310;6.990;2023-06-05T00:27:30;5.75;;;2.28;;
78686;SDS011;68002;52.310;6.990;2023-06-05T00:29:56;4.93;;;2.63;;
78686;SDS011;68002;52.310;6.990;2023-06-05T00:32:21;5.23;;;2.00;;
78686;SDS011;68002;52.310;6.990;2023-06-05T00:34:46;4.27;;;2.27;;
78686;SDS011;68002;52.310;6.990;2023-06-05T00:37:11;6.07;;;2.90;;
78686;SDS011;68002;52.310;6.990;2023-06-05T00:39:37;6.30;;;2.60;;
78686;SDS011;68002;52.310;6.990;2023-06-05T00:42:02;4.87;;;2.30;;
78686;SDS011;68002;52.310;6.990;2023-06-05T00:44:27;5.40;;;2.10;;
78686;SDS011;68002;52.310;6.990;2023-06-05T00:46:53;5.80;;;2.60;;
78686;SDS011;68002;52.310;6.990;2023-06-05T00:49:18;6.27;;;2.70;;
78686;SDS011;68002;52.310;6.990;2023-06-05T00:51:45;6.13;;;2.55;;
78686;SDS011;68002;52.310;6.990;2023-06-05T00:54:11;6.05;;;3.22;;
78686;SDS011;68002;52.310;6.990;2023-06-05T00:56:37;5.63;;;2.83;;
78686;SDS011;68002;52.310;6.990;2023-06-05T00:59:02;6.83;;;3.10;;
78686;SDS011;68002;52.310;6.990;2023-06-05T01:01:28;5.93;;;2.55;;
78686;SDS011;68002;52.310;6.990;2023-06-05T01:03:54;5.50;;;3.00;;
78686;SDS011;68002;52.310;6.990;2023-06-05T01:06:20;6.22;;;2.83;;
78686;SDS011;68002;52.310;6.990;2023-06-05T01:08:45;8.47;;;2.87;;
78686;SDS011;68002;52.310;6.990;2023-06-05T01:11:22;5.97;;;2.90;;
78686;SDS011;68002;52.310;6.990;2023-06-05T01:16:44;4.55;;;2.15;;
78686;SDS011;68002;52.310;6.990;2023-06-05T01:21:38;10.65;;;4.20;;
78686;SDS011;68002;52.310;6.990;2023-06-05T01:24:04;7.30;;;3.13;;
78686;SDS011;68002;52.310;6.990;2023-06-05T01:29:35;5.97;;;2.75;;
78686;SDS011;68002;52.310;6.990;2023-06-05T01:32:11;7.55;;;3.13;;
78686;SDS011;68002;52.310;6.990;2023-06-05T01:34:40;5.78;;;2.97;;
78686;SDS011;68002;52.310;6.990;2023-06-05T01:37:05;6.35;;;3.05;;
78686;SDS011;68002;52.310;6.990;2023-06-05T01:39:31;8.95;;;3.47;;
78686;SDS011;68002;52.310;6.990;2023-06-05T01:41:57;10.93;;;3.80;;
78686;SDS011;68002;52.310;6.990;2023-06-05T01:44:23;6.88;;;3.40;;
78686;SDS011;68002;52.310;6.990;2023-06-05T01:46:49;7.93;;;3.45;;
78686;SDS011;68002;52.310;6.990;2023-06-05T01:49:15;7.57;;;3.17;;
78686;SDS011;68002;52.310;6.990;2023-06-05T01:51:40;8.52;;;3.10;;
78686;SDS011;68002;52.310;6.990;2023-06-05T01:54:05;7.20;;;3.13;;
78686;SDS011;68002;52.310;6.990;2023-06-05T01:56:31;9.27;;;3.97;;
78686;SDS011;68002;52.310;6.990;2023-06-05T01:58:57;8.23;;;4.20;;
78686;SDS011;68002;52.310;6.990;2023-06-05T02:01:22;7.65;;;3.75;;
78686;SDS011;68002;52.310;6.990;2023-06-05T02:03:47;7.10;;;3.40;;
78686;SDS011;68002;52.310;6.990;2023-06-05T02:06:16;8.27;;;3.63;;
78686;SDS011;68002;52.310;6.990;2023-06-05T02:08:41;6.13;;;2.72;;
78686;SDS011;68002;52.310;6.990;2023-06-05T02:11:07;8.75;;;3.03;;
78686;SDS011;68002;52.310;6.990;2023-06-05T02:13:33;9.82;;;4.03;;
78686;SDS011;68002;52.310;6.990;2023-06-05T02:15:58;10.03;;;4.27;;
78686;SDS011;68002;52.310;6.990;2023-06-05T02:18:23;8.57;;;4.67;;
78686;SDS011;68002;52.310;6.990;2023-06-05T02:20:52;9.87;;;4.10;;
78686;SDS011;68002;52.310;6.990;2023-06-05T02:23:18;10.18;;;3.33;;
78686;SDS011;68002;52.310;6.990;2023-06-05T02:25:43;7.80;;;3.20;;
78686;SDS011;68002;52.310;6.990;2023-06-05T02:28:09;8.37;;;3.43;;
78686;SDS011;68002;52.310;6.990;2023-06-05T02:30:34;8.27;;;3.60;;
78686;SDS011;68002;52.310;6.990;2023-06-05T02:32:59;9.70;;;4.33;;
78686;SDS011;68002;52.310;6.990;2023-06-05T02:35:24;10.07;;;4.03;;
78686;SDS011;68002;52.310;6.990;2023-06-05T02:37:49;7.87;;;3.33;;
78686;SDS011;68002;52.310;6.990;2023-06-05T02:40:15;6.87;;;2.83;;
78686;SDS011;68002;52.310;6.990;2023-06-05T02:42:40;9.03;;;3.53;;
78686;SDS011;68002;52.310;6.990;2023-06-05T02:45:06;9.18;;;3.10;;
78686;SDS011;68002;52.310;6.990;2023-06-05T02:47:32;9.05;;;3.65;;
78686;SDS011;68002;52.310;6.990;2023-06-05T02:49:57;7.17;;;3.20;;
78686;SDS011;68002;52.310;6.990;2023-06-05T02:52:22;9.27;;;3.80;;
78686;SDS011;68002;52.310;6.990;2023-06-05T02:54:48;8.17;;;3.23;;
78686;SDS011;68002;52.310;6.990;2023-06-05T02:57:13;9.17;;;3.60;;
78686;SDS011;68002;52.310;6.990;2023-06-05T02:59:38;7.50;;;2.50;;
78686;SDS011;68002;52.310;6.990;2023-06-05T03:02:03;8.77;;;3.33;;
78686;SDS011;68002;52.310;6.990;2023-06-05T03:04:29;8.05;;;2.92;;
78686;SDS011;68002;52.310;6.990;2023-06-05T03:06:54;8.27;;;4.10;;
78686;SDS011;68002;52.310;6.990;2023-06-05T03:09:19;8.23;;;4.70;;
78686;SDS011;68002;52.310;6.990;2023-06-05T03:11:44;9.93;;;3.67;;
78686;SDS011;68002;52.310;6.990;2023-06-05T03:14:10;6.30;;;3.00;;
78686;SDS011;68002;52.310;6.990;2023-06-05T03:16:35;7.53;;;3.70;;
78686;SDS011;68002;52.310;6.990;2023-06-05T03:19:00;7.30;;;3.20;;
78686;SDS011;68002;52.310;6.990;2023-06-05T03:21:25;6.93;;;3.10;;
78686;SDS011;68002;52.310;6.990;2023-06-05T03:23:50;8.20;;;3.53;;
78686;SDS011;68002;52.310;6.990;2023-06-05T03:26:16;9.27;;;3.87;;
78686;SDS011;68002;52.310;6.990;2023-06-05T03:28:41;11.87;;;4.30;;
78686;SDS011;68002;52.310;6.990;2023-06-05T03:31:06;11.03;;;3.33;;
78686;SDS011;68002;52.310;6.990;2023-06-05T03:33:31;11.27;;;5.27;;
78686;SDS011;68002;52.310;6.990;2023-06-05T03:35:56;8.07;;;3.37;;
78686;SDS011;68002;52.310;6.990;2023-06-05T03:38:22;8.80;;;3.27;;
78686;SDS011;68002;52.310;6.990;2023-06-05T03:40:47;9.53;;;4.60;;
78686;SDS011;68002;52.310;6.990;2023-06-05T03:43:12;10.43;;;4.13;;
78686;SDS011;68002;52.310;6.990;2023-06-05T03:45:37;7.13;;;3.30;;
78686;SDS011;68002;52.310;6.990;2023-06-05T03:48:03;10.32;;;4.13;;
78686;SDS011;68002;52.310;6.990;2023-06-05T03:50:28;7.28;;;3.47;;
78686;SDS011;68002;52.310;6.990;2023-06-05T03:52:54;10.13;;;4.60;;
78686;SDS011;68002;52.310;6.990;2023-06-05T03:55:20;6.53;;;3.42;;
78686;SDS011;68002;52.310;6.990;2023-06-05T03:57:46;8.63;;;4.07;;
78686;SDS011;68002;52.310;6.990;2023-06-05T04:00:14;7.90;;;3.72;;
78686;SDS011;68002;52.310;6.990;2023-06-05T04:02:40;8.05;;;4.18;;
78686;SDS011;68002;52.310;6.990;2023-06-05T04:05:05;7.60;;;4.07;;
78686;SDS011;68002;52.310;6.990;2023-06-05T04:07:31;7.78;;;3.65;;
78686;SDS011;68002;52.310;6.990;2023-06-05T04:09:56;8.10;;;3.73;;
78686;SDS011;68002;52.310;6.990;2023-06-05T04:12:21;9.27;;;4.00;;
78686;SDS011;68002;52.310;6.990;2023-06-05T04:14:47;7.30;;;3.27;;
78686;SDS011;68002;52.310;6.990;2023-06-05T04:17:12;7.72;;;2.72;;
78686;SDS011;68002;52.310;6.990;2023-06-05T04:19:37;7.60;;;3.63;;
78686;SDS011;68002;52.310;6.990;2023-06-05T04:22:03;7.30;;;3.60;;
78686;SDS011;68002;52.310;6.990;2023-06-05T04:24:28;9.40;;;3.97;;
78686;SDS011;68002;52.310;6.990;2023-06-05T04:26:53;7.67;;;3.27;;
78686;SDS011;68002;52.310;6.990;2023-06-05T04:29:18;9.97;;;4.00;;
78686;SDS011;68002;52.310;6.990;2023-06-05T04:31:45;7.53;;;3.03;;
78686;SDS011;68002;52.310;6.990;2023-06-05T04:34:11;7.70;;;3.60;;
78686;SDS011;68002;52.310;6.990;2023-06-05T04:36:36;12.57;;;4.63;;
78686;SDS011;68002;52.310;6.990;2023-06-05T04:39:02;8.38;;;4.15;;
78686;SDS011;68002;52.310;6.990;2023-06-05T04:41:28;8.07;;;4.25;;
78686;SDS011;68002;52.310;6.990;2023-06-05T04:43:53;8.33;;;3.13;;
78686;SDS011;68002;52.310;6.990;2023-06-05T04:46:18;9.87;;;4.30;;
78686;SDS011;68002;52.310;6.990;2023-06-05T04:48:44;9.40;;;4.23;;
78686;SDS011;68002;52.310;6.990;2023-06-05T04:51:09;6.80;;;3.57;;
78686;SDS011;68002;52.310;6.990;2023-06-05T04:53:34;7.57;;;3.80;;
78686;SDS011;68002;52.310;6.990;2023-06-05T04:55:59;8.03;;;3.57;;
78686;SDS011;68002;52.310;6.990;2023-06-05T04:58:25;10.67;;;4.27;;
78686;SDS011;68002;52.310;6.990;2023-06-05T05:00:50;13.30;;;4.70;;
78686;SDS011;68002;52.310;6.990;2023-06-05T05:03:15;8.73;;;3.53;;
78686;SDS011;68002;52.310;6.990;2023-06-05T05:05:40;9.47;;;3.73;;
78686;SDS011;68002;52.310;6.990;2023-06-05T05:08:05;9.70;;;4.00;;
78686;SDS011;68002;52.310;6.990;2023-06-05T05:10:31;9.40;;;4.33;;
78686;SDS011;68002;52.310;6.990;2023-06-05T05:12:56;9.73;;;3.88;;
78686;SDS011;68002;52.310;6.990;2023-06-05T05:15:22;8.10;;;4.17;;
78686;SDS011;68002;52.310;6.990;2023-06-05T05:17:47;11.77;;;4.57;;
78686;SDS011;68002;52.310;6.990;2023-06-05T05:20:13;10.27;;;4.60;;
78686;SDS011;68002;52.310;6.990;2023-06-05T05:22:38;10.53;;;4.67;;
78686;SDS011;68002;52.310;6.990;2023-06-05T05:25:03;12.03;;;4.30;;
78686;SDS011;68002;52.310;6.990;2023-06-05T05:27:29;8.40;;;4.00;;
78686;SDS011;68002;52.310;6.990;2023-06-05T05:29:54;6.43;;;2.80;;
78686;SDS011;68002;52.310;6.990;2023-06-05T05:32:19;9.57;;;3.20;;
78686;SDS011;68002;52.310;6.990;2023-06-05T05:34:44;11.90;;;4.43;;
78686;SDS011;68002;52.310;6.990;2023-06-05T05:37:10;8.37;;;4.17;;
78686;SDS011;68002;52.310;6.990;2023-06-05T05:39:35;9.10;;;3.70;;
78686;SDS011;68002;52.310;6.990;2023-06-05T05:42:00;9.00;;;4.40;;
78686;SDS011;68002;52.310;6.990;2023-06-05T05:44:25;8.80;;;4.23;;
78686;SDS011;68002;52.310;6.990;2023-06-05T05:46:50;10.00;;;3.90;;
78686;SDS011;68002;52.310;6.990;2023-06-05T05:49:16;9.67;;;5.17;;
78686;SDS011;68002;52.310;6.990;2023-06-05T05:51:41;7.37;;;3.67;;
78686;SDS011;68002;52.310;6.990;2023-06-05T05:54:06;7.23;;;3.30;;
78686;SDS011;68002;52.310;6.990;2023-06-05T05:56:31;6.90;;;3.40;;
78686;SDS011;68002;52.310;6.990;2023-06-05T05:58:57;9.35;;;4.65;;
78686;SDS011;68002;52.310;6.990;2023-06-05T06:01:22;8.27;;;3.63;;
78686;SDS011;68002;52.310;6.990;2023-06-05T06:03:47;10.33;;;4.03;;
78686;SDS011;68002;52.310;6.990;2023-06-05T06:06:12;7.63;;;4.07;;
78686;SDS011;68002;52.310;6.990;2023-06-05T06:08:38;7.97;;;3.40;;
78686;SDS011;68002;52.310;6.990;2023-06-05T06:11:03;8.50;;;3.90;;
78686;SDS011;68002;52.310;6.990;2023-06-05T06:13:28;6.87;;;3.57;;
78686;SDS011;68002;52.310;6.990;2023-06-05T06:15:53;7.67;;;3.73;;
78686;SDS011;68002;52.310;6.990;2023-06-05T06:18:18;6.17;;;3.50;;
78686;SDS011;68002;52.310;6.990;2023-06-05T06:20:44;6.80;;;3.43;;
78686;SDS011;68002;52.310;6.990;2023-06-05T06:23:09;8.83;;;3.80;;
78686;SDS011;68002;52.310;6.990;2023-06-05T06:25:34;9.30;;;4.00;;
78686;SDS011;68002;52.310;6.990;2023-06-05T06:28:00;7.27;;;3.97;;
78686;SDS011;68002;52.310;6.990;2023-06-05T06:30:25;7.20;;;3.95;;
78686;SDS011;68002;52.310;6.990;2023-06-05T06:32:51;8.18;;;3.85;;
78686;SDS011;68002;52.310;6.990;2023-06-05T06:35:16;8.20;;;3.67;;
78686;SDS011;68002;52.310;6.990;2023-06-05T06:37:42;7.45;;;3.30;;
78686;SDS011;68002;52.310;6.990;2023-06-05T06:40:08;5.63;;;3.20;;
78686;SDS011;68002;52.310;6.990;2023-06-05T06:42:33;6.97;;;3.22;;
78686;SDS011;68002;52.310;6.990;2023-06-05T06:44:59;7.80;;;4.10;;
78686;SDS011;68002;52.310;6.990;2023-06-05T06:47:24;8.80;;;3.93;;
78686;SDS011;68002;52.310;6.990;2023-06-05T06:49:49;6.43;;;3.90;;
78686;SDS011;68002;52.310;6.990;2023-06-05T06:52:15;5.53;;;2.87;;
78686;SDS011;68002;52.310;6.990;2023-06-05T06:54:40;6.67;;;3.33;;
78686;SDS011;68002;52.310;6.990;2023-06-05T06:57:05;8.30;;;4.40;;
78686;SDS011;68002;52.310;6.990;2023-06-05T06:59:30;6.40;;;3.40;;
78686;SDS011;68002;52.310;6.990;2023-06-05T07:04:53;6.10;;;3.28;;
78686;SDS011;68002;52.310;6.990;2023-06-05T07:07:18;6.27;;;3.20;;
78686;SDS011;68002;52.310;6.990;2023-06-05T07:09:45;6.05;;;3.83;;
78686;SDS011;68002;52.310;6.990;2023-06-05T07:12:11;6.60;;;3.35;;
78686;SDS011;68002;52.310;6.990;2023-06-05T07:14:37;6.78;;;3.50;;
78686;SDS011;68002;52.310;6.990;2023-06-05T07:17:03;6.82;;;3.42;;
78686;SDS011;68002;52.310;6.990;2023-06-05T07:19:29;7.30;;;3.45;;
78686;SDS011;68002;52.310;6.990;2023-06-05T07:21:56;8.20;;;3.63;;
78686;SDS011;68002;52.310;6.990;2023-06-05T07:24:22;8.23;;;4.00;;
78686;SDS011;68002;52.310;6.990;2023-06-05T07:26:47;7.18;;;3.50;;
78686;SDS011;68002;52.310;6.990;2023-06-05T07:29:12;4.70;;;2.80;;
78686;SDS011;68002;52.310;6.990;2023-06-05T07:31:37;5.30;;;2.93;;
78686;SDS011;68002;52.310;6.990;2023-06-05T07:34:03;6.40;;;3.30;;
78686;SDS011;68002;52.310;6.990;2023-06-05T07:36:28;8.80;;;3.83;;
78686;SDS011;68002;52.310;6.990;2023-06-05T07:38:54;6.85;;;3.35;;
78686;SDS011;68002;52.310;6.990;2023-06-05T07:41:19;9.23;;;3.57;;
78686;SDS011;68002;52.310;6.990;2023-06-05T07:43:45;6.55;;;3.72;;
78686;SDS011;68002;52.310;6.990;2023-06-05T07:46:10;7.07;;;3.50;;
78686;SDS011;68002;52.310;6.990;2023-06-05T07:48:35;6.43;;;3.00;;
78686;SDS011;68002;52.310;6.990;2023-06-05T07:51:00;7.63;;;4.30;;
78686;SDS011;68002;52.310;6.990;2023-06-05T07:53:25;6.70;;;3.83;;
78686;SDS011;68002;52.310;6.990;2023-06-05T07:55:51;5.53;;;2.97;;
78686;SDS011;68002;52.310;6.990;2023-06-05T07:58:16;6.87;;;3.60;;
78686;SDS011;68002;52.310;6.990;2023-06-05T08:00:41;5.47;;;2.97;;
78686;SDS011;68002;52.310;6.990;2023-06-05T08:03:06;6.87;;;3.47;;
78686;SDS011;68002;52.310;6.990;2023-06-05T08:05:32;7.10;;;3.93;;
78686;SDS011;68002;52.310;6.990;2023-06-05T08:07:57;7.40;;;4.20;;
78686;SDS011;68002;52.310;6.990;2023-06-05T08:10:22;7.03;;;3.33;;
78686;SDS011;68002;52.310;6.990;2023-06-05T08:12:47;6.33;;;3.23;;
78686;SDS011;68002;52.310;6.990;2023-06-05T08:15:12;6.73;;;4.07;;
78686;SDS011;68002;52.310;6.990;2023-06-05T08:17:38;6.33;;;3.77;;
78686;SDS011;68002;52.310;6.990;2023-06-05T08:20:03;6.80;;;4.00;;
78686;SDS011;68002;52.310;6.990;2023-06-05T08:22:28;5.72;;;3.38;;
78686;SDS011;68002;52.310;6.990;2023-06-05T08:24:54;8.13;;;3.70;;
78686;SDS011;68002;52.310;6.990;2023-06-05T08:27:19;8.27;;;3.60;;
78686;SDS011;68002;52.310;6.990;2023-06-05T08:29:44;7.67;;;3.40;;
78686;SDS011;68002;52.310;6.990;2023-06-05T08:32:09;6.23;;;3.27;;
78686;SDS011;68002;52.310;6.990;2023-06-05T08:34:35;6.27;;;3.30;;
78686;SDS011;68002;52.310;6.990;2023-06-05T08:37:00;6.07;;;3.37;;
78686;SDS011;68002;52.310;6.990;2023-06-05T08:39:25;7.50;;;3.92;;
78686;SDS011;68002;52.310;6.990;2023-06-05T08:41:51;7.60;;;3.60;;
78686;SDS011;68002;52.310;6.990;2023-06-05T08:44:17;6.60;;;4.50;;
78686;SDS011;68002;52.310;6.990;2023-06-05T08:46:42;6.97;;;3.90;;
78686;SDS011;68002;52.310;6.990;2023-06-05T08:49:10;5.05;;;2.88;;
78686;SDS011;68002;52.310;6.990;2023-06-05T08:51:35;6.18;;;3.28;;
78686;SDS011;68002;52.310;6.990;2023-06-05T08:54:04;6.55;;;3.60;;
78686;SDS011;68002;52.310;6.990;2023-06-05T08:56:29;6.78;;;3.33;;
78686;SDS011;68002;52.310;6.990;2023-06-05T08:58:55;6.75;;;3.47;;
78686;SDS011;68002;52.310;6.990;2023-06-05T09:01:21;5.95;;;3.42;;
78686;SDS011;68002;52.310;6.990;2023-06-05T09:03:46;7.00;;;3.33;;
78686;SDS011;68002;52.310;6.990;2023-06-05T09:06:11;8.37;;;4.40;;
78686;SDS011;68002;52.310;6.990;2023-06-05T09:08:37;5.30;;;2.60;;
78686;SDS011;68002;52.310;6.990;2023-06-05T09:13:50;7.78;;;4.00;;
78686;SDS011;68002;52.310;6.990;2023-06-05T09:16:19;7.10;;;3.83;;
78686;SDS011;68002;52.310;6.990;2023-06-05T09:18:57;8.48;;;3.90;;
78686;SDS011;68002;52.310;6.990;2023-06-05T09:21:24;6.93;;;3.53;;
78686;SDS011;68002;52.310;6.990;2023-06-05T09:23:50;7.43;;;4.10;;
78686;SDS011;68002;52.310;6.990;2023-06-05T09:26:16;6.57;;;3.57;;
78686;SDS011;68002;52.310;6.990;2023-06-05T09:28:53;7.60;;;3.77;;
78686;SDS011;68002;52.310;6.990;2023-06-05T09:31:19;7.25;;;4.50;;
78686;SDS011;68002;52.310;6.990;2023-06-05T09:33:45;6.87;;;3.93;;
78686;SDS011;68002;52.310;6.990;2023-06-05T09:36:19;5.53;;;3.58;;
78686;SDS011;68002;52.310;6.990;2023-06-05T09:38:44;5.00;;;3.43;;
78686;SDS011;68002;52.310;6.990;2023-06-05T09:41:10;5.77;;;3.40;;
78686;SDS011;68002;52.310;6.990;2023-06-05T09:43:38;5.15;;;3.15;;
78686;SDS011;68002;52.310;6.990;2023-06-05T09:48:32;6.07;;;3.65;;
78686;SDS011;68002;52.310;6.990;2023-06-05T09:51:05;6.33;;;3.10;;
78686;SDS011;68002;52.310;6.990;2023-06-05T09:53:33;5.43;;;3.10;;
78686;SDS011;68002;52.310;6.990;2023-06-05T09:55:59;5.03;;;3.13;;
78686;SDS011;68002;52.310;6.990;2023-06-05T09:58:26;5.07;;;3.42;;
78686;SDS011;68002;52.310;6.990;2023-06-05T10:00:51;5.80;;;3.33;;
78686;SDS011;68002;52.310;6.990;2023-06-05T10:03:17;6.30;;;3.92;;
78686;SDS011;68002;52.310;6.990;2023-06-05T10:05:45;5.68;;;4.13;;
78686;SDS011;68002;52.310;6.990;2023-06-05T10:08:12;6.57;;;3.47;;
78686;SDS011;68002;52.310;6.990;2023-06-05T10:10:37;6.78;;;3.35;;
78686;SDS011;68002;52.310;6.990;2023-06-05T10:13:03;5.47;;;3.25;;
78686;SDS011;68002;52.310;6.990;2023-06-05T10:15:29;6.40;;;2.90;;
78686;SDS011;68002;52.310;6.990;2023-06-05T10:17:56;6.10;;;3.78;;
78686;SDS011;68002;52.310;6.990;2023-06-05T10:20:22;7.93;;;3.70;;
78686;SDS011;68002;52.310;6.990;2023-06-05T10:22:47;5.93;;;3.20;;
78686;SDS011;68002;52.310;6.990;2023-06-05T10:25:15;6.95;;;4.10;;
78686;SDS011;68002;52.310;6.990;2023-06-05T10:27:50;5.30;;;3.67;;
78686;SDS011;68002;52.310;6.990;2023-06-05T10:33:25;5.72;;;3.75;;
78686;SDS011;68002;52.310;6.990;2023-06-05T10:36:05;7.10;;;3.83;;
78686;SDS011;68002;52.310;6.990;2023-06-05T10:38:41;6.18;;;3.45;;
78686;SDS011;68002;52.310;6.990;2023-06-05T10:41:07;5.20;;;2.65;;
78686;SDS011;68002;52.310;6.990;2023-06-05T10:43:35;4.82;;;2.72;;
78686;SDS011;68002;52.310;6.990;2023-06-05T10:51:51;5.32;;;3.20;;
78686;SDS011;68002;52.310;6.990;2023-06-05T10:59:17;5.68;;;3.30;;
78686;SDS011;68002;52.310;6.990;2023-06-05T11:01:43;5.75;;;3.40;;
78686;SDS011;68002;52.310;6.990;2023-06-05T11:04:08;5.87;;;3.07;;
78686;SDS011;68002;52.310;6.990;2023-06-05T11:06:34;5.57;;;3.50;;
78686;SDS011;68002;52.310;6.990;2023-06-05T11:09:12;5.00;;;2.90;;
78686;SDS011;68002;52.310;6.990;2023-06-05T11:11:54;4.25;;;2.90;;
78686;SDS011;68002;52.310;6.990;2023-06-05T11:14:24;5.50;;;2.90;;
78686;SDS011;68002;52.310;6.990;2023-06-05T11:17:25;4.53;;;2.75;;
78686;SDS011;68002;52.310;6.990;2023-06-05T11:19:52;4.95;;;2.90;;
78686;SDS011;68002;52.310;6.990;2023-06-05T11:22:17;4.97;;;2.97;;
78686;SDS011;68002;52.310;6.990;2023-06-05T11:24:42;6.57;;;2.97;;
78686;SDS011;68002;52.310;6.990;2023-06-05T11:27:07;4.13;;;2.57;;
78686;SDS011;68002;52.310;6.990;2023-06-05T11:30:18;4.75;;;3.30;;
78686;SDS011;68002;52.310;6.990;2023-06-05T11:32:45;5.80;;;3.47;;
78686;SDS011;68002;52.310;6.990;2023-06-05T11:35:10;5.25;;;2.30;;
78686;SDS011;68002;52.310;6.990;2023-06-05T11:37:37;4.38;;;2.63;;
78686;SDS011;68002;52.310;6.990;2023-06-05T11:40:03;6.57;;;3.63;;
78686;SDS011;68002;52.310;6.990;2023-06-05T11:42:29;3.75;;;2.42;;
78686;SDS011;68002;52.310;6.990;2023-06-05T11:44:55;4.97;;;2.90;;
78686;SDS011;68002;52.310;6.990;2023-06-05T11:47:23;5.87;;;3.43;;
78686;SDS011;68002;52.310;6.990;2023-06-05T11:49:49;7.25;;;3.70;;
78686;SDS011;68002;52.310;6.990;2023-06-05T11:52:18;6.20;;;3.30;;
78686;SDS011;68002;52.310;6.990;2023-06-05T11:54:44;4.93;;;2.60;;
78686;SDS011;68002;52.310;6.990;2023-06-05T11:57:09;4.00;;;2.63;;
78686;SDS011;68002;52.310;6.990;2023-06-05T11:59:35;4.93;;;2.57;;
78686;SDS011;68002;52.310;6.990;2023-06-05T12:02:01;5.03;;;3.20;;
78686;SDS011;68002;52.310;6.990;2023-06-05T12:04:26;5.27;;;2.70;;
78686;SDS011;68002;52.310;6.990;2023-06-05T12:06:51;5.53;;;3.10;;
78686;SDS011;68002;52.310;6.990;2023-06-05T12:09:16;7.43;;;3.53;;
78686;SDS011;68002;52.310;6.990;2023-06-05T12:11:42;4.70;;;2.67;;
78686;SDS011;68002;52.310;6.990;2023-06-05T12:14:09;6.05;;;3.15;;
78686;SDS011;68002;52.310;6.990;2023-06-05T12:16:36;3.67;;;2.63;;
78686;SDS011;68002;52.310;6.990;2023-06-05T12:19:16;4.53;;;2.58;;
78686;SDS011;68002;52.310;6.990;2023-06-05T12:21:46;3.78;;;2.35;;
78686;SDS011;68002;52.310;6.990;2023-06-05T12:24:12;4.47;;;2.30;;
78686;SDS011;68002;52.310;6.990;2023-06-05T12:29:34;4.72;;;2.50;;
78686;SDS011;68002;52.310;6.990;2023-06-05T12:32:01;4.35;;;2.35;;
78686;SDS011;68002;52.310;6.990;2023-06-05T12:37:06;5.72;;;2.40;;
78686;SDS011;68002;52.310;6.990;2023-06-05T12:39:31;3.67;;;2.27;;
78686;SDS011;68002;52.310;6.990;2023-06-05T12:41:58;4.15;;;2.40;;
78686;SDS011;68002;52.310;6.990;2023-06-05T12:44:23;4.30;;;2.43;;
78686;SDS011;68002;52.310;6.990;2023-06-05T12:46:49;5.70;;;2.33;;
78686;SDS011;68002;52.310;6.990;2023-06-05T12:49:14;4.23;;;2.10;;
78686;SDS011;68002;52.310;6.990;2023-06-05T12:51:39;4.80;;;2.30;;
78686;SDS011;68002;52.310;6.990;2023-06-05T12:54:04;3.33;;;2.40;;
78686;SDS011;68002;52.310;6.990;2023-06-05T12:56:30;4.88;;;2.40;;
78686;SDS011;68002;52.310;6.990;2023-06-05T12:58:56;3.33;;;2.10;;
78686;SDS011;68002;52.310;6.990;2023-06-05T13:01:25;4.57;;;2.13;;
78686;SDS011;68002;52.310;6.990;2023-06-05T13:03:51;3.72;;;2.10;;
78686;SDS011;68002;52.310;6.990;2023-06-05T13:06:17;3.20;;;1.95;;
78686;SDS011;68002;52.310;6.990;2023-06-05T13:08:43;3.17;;;2.08;;
78686;SDS011;68002;52.310;6.990;2023-06-05T13:11:08;5.30;;;2.47;;
78686;SDS011;68002;52.310;6.990;2023-06-05T13:13:35;2.90;;;1.93;;
78686;SDS011;68002;52.310;6.990;2023-06-05T13:16:01;3.28;;;1.55;;
78686;SDS011;68002;52.310;6.990;2023-06-05T13:18:27;5.23;;;2.30;;
78686;SDS011;68002;52.310;6.990;2023-06-05T13:20:52;3.58;;;1.88;;
78686;SDS011;68002;52.310;6.990;2023-06-05T13:23:18;4.17;;;2.20;;
78686;SDS011;68002;52.310;6.990;2023-06-05T13:25:43;3.67;;;2.30;;
78686;SDS011;68002;52.310;6.990;2023-06-05T13:28:08;4.27;;;1.93;;
78686;SDS011;68002;52.310;6.990;2023-06-05T13:30:33;3.87;;;1.80;;
78686;SDS011;68002;52.310;6.990;2023-06-05T13:32:59;3.00;;;1.90;;
78686;SDS011;68002;52.310;6.990;2023-06-05T13:35:24;5.97;;;1.73;;
78686;SDS011;68002;52.310;6.990;2023-06-05T13:37:50;3.50;;;2.00;;
78686;SDS011;68002;52.310;6.990;2023-06-05T13:40:15;2.87;;;1.60;;
78686;SDS011;68002;52.310;6.990;2023-06-05T13:42:40;4.20;;;2.50;;
78686;SDS011;68002;52.310;6.990;2023-06-05T13:45:06;2.60;;;1.80;;
78686;SDS011;68002;52.310;6.990;2023-06-05T13:47:31;3.90;;;2.15;;
78686;SDS011;68002;52.310;6.990;2023-06-05T13:49:56;3.17;;;1.97;;
78686;SDS011;68002;52.310;6.990;2023-06-05T13:52:22;3.73;;;1.93;;
78686;SDS011;68002;52.310;6.990;2023-06-05T13:54:47;3.57;;;2.13;;
78686;SDS011;68002;52.310;6.990;2023-06-05T13:57:12;2.87;;;1.70;;
78686;SDS011;68002;52.310;6.990;2023-06-05T13:59:37;4.77;;;1.87;;
78686;SDS011;68002;52.310;6.990;2023-06-05T14:02:03;3.15;;;1.70;;
78686;SDS011;68002;52.310;6.990;2023-06-05T14:04:28;4.80;;;1.75;;
78686;SDS011;68002;52.310;6.990;2023-06-05T14:06:53;3.63;;;1.77;;
78686;SDS011;68002;52.310;6.990;2023-06-05T14:09:19;3.50;;;1.40;;
78686;SDS011;68002;52.310;6.990;2023-06-05T14:11:44;3.50;;;1.67;;
78686;SDS011;68002;52.310;6.990;2023-06-05T14:14:10;4.80;;;2.30;;
78686;SDS011;68002;52.310;6.990;2023-06-05T14:16:35;3.47;;;1.98;;
78686;SDS011;68002;52.310;6.990;2023-06-05T14:19:00;4.90;;;1.80;;
78686;SDS011;68002;52.310;6.990;2023-06-05T14:21:25;4.23;;;1.83;;
78686;SDS011;68002;52.310;6.990;2023-06-05T14:23:51;5.07;;;2.37;;
78686;SDS011;68002;52.310;6.990;2023-06-05T14:26:16;2.70;;;1.67;;
78686;SDS011;68002;52.310;6.990;2023-06-05T14:28:41;3.13;;;1.83;;
78686;SDS011;68002;52.310;6.990;2023-06-05T14:31:06;4.77;;;2.10;;
78686;SDS011;68002;52.310;6.990;2023-06-05T14:33:32;3.50;;;1.70;;
78686;SDS011;68002;52.310;6.990;2023-06-05T14:35:57;2.43;;;1.30;;
78686;SDS011;68002;52.310;6.990;2023-06-05T14:38:22;3.13;;;1.50;;
78686;SDS011;68002;52.310;6.990;2023-06-05T14:40:47;3.27;;;1.93;;
78686;SDS011;68002;52.310;6.990;2023-06-05T14:43:12;3.03;;;1.77;;
78686;SDS011;68002;52.310;6.990;2023-06-05T14:45:38;4.10;;;1.87;;
78686;SDS011;68002;52.310;6.990;2023-06-05T14:48:03;3.47;;;1.93;;
78686;SDS011;68002;52.310;6.990;2023-06-05T14:50:28;2.67;;;1.53;;
78686;SDS011;68002;52.310;6.990;2023-06-05T14:52:53;3.13;;;1.60;;
78686;SDS011;68002;52.310;6.990;2023-06-05T14:55:18;3.13;;;1.70;;
78686;SDS011;68002;52.310;6.990;2023-06-05T14:57:44;2.17;;;1.37;;
78686;SDS011;68002;52.310;6.990;2023-06-05T15:00:09;2.73;;;1.60;;
78686;SDS011;68002;52.310;6.990;2023-06-05T15:02:35;3.35;;;1.50;;
78686;SDS011;68002;52.310;6.990;2023-06-05T15:05:00;3.20;;;1.37;;
78686;SDS011;68002;52.310;6.990;2023-06-05T15:07:36;2.92;;;1.42;;
78686;SDS011;68002;52.310;6.990;2023-06-05T15:10:02;3.10;;;1.70;;
78686;SDS011;68002;52.310;6.990;2023-06-05T15:12:28;4.35;;;1.98;;
78686;SDS011;68002;52.310;6.990;2023-06-05T15:14:53;4.33;;;1.43;;
78686;SDS011;68002;52.310;6.990;2023-06-05T15:17:18;5.70;;;2.10;;